sensor_id;sensor_type;location;lat;lon;timestamp;P1;durP1;ratioP1;P2;durP2;ratioP2
23123;SDS011;11731;48.592;8.858;2023-06-10T00:02:13;6.37;;;5.37;;
23123;SDS011;11731;48.592;8.858;2023-06-10T00:04:41;5.73;;;5.13;;
23123;SDS011;11731;48.592;8.858;2023-06-10T00:07:09;6.63;;;5.30;;
23123;SDS011;11731;48.592;8.858;2023-06-10T00:09:35;6.43;;;5.33;;
23123;SDS011;11731;48.592;8.858;2023-06-10T00:12:03;6.67;;;5.47;;
23123;SDS011;11731;48.592;8.858;2023-06-10T00:14:32;6.27;;;5.67;;
23123;SDS011;11731;48.592;8.858;2023-06-10T00:16:58;6.17;;;5.53;;
23123;SDS011;11731;48.592;8.858;2023-06-10T00:19:32;5.90;;;5.40;;
23123;SDS011;11731;48.592;8.858;2023-06-10T00:22:00;6.60;;;6.00;;
23123;SDS011;11731;48.592;8.858;2023-06-10T00:24:28;6.93;;;6.20;;
23123;SDS011;11731;48.592;8.858;2023-06-10T00:26:55;6.00;;;5.30;;
23123;SDS011;11731;48.592;8.858;2023-06-10T00:29:21;6.13;;;5.53;;
23123;SDS011;11731;48.592;8.858;2023-06-10T00:31:48;6.97;;;5.60;;
23123;SDS011;11731;48.592;8.858;2023-06-10T00:34:15;6.80;;;6.17;;
23123;SDS011;11731;48.592;8.858;2023-06-10T00:36:43;7.10;;;6.40;;
23123;SDS011;11731;48.592;8.858;2023-06-10T00:39:10;7.03;;;5.97;;
23123;SDS011;11731;48.592;8.858;2023-06-10T00:41:37;7.03;;;5.87;;
23123;SDS011;11731;48.592;8.858;2023-06-10T00:44:04;6.40;;;5.80;;
23123;SDS011;11731;48.592;8.858;2023-06-10T00:46:31;6.90;;;6.20;;
23123;SDS011;11731;48.592;8.858;2023-06-10T00:48:58;6.77;;;6.17;;
23123;SDS011;11731;48.592;8.858;2023-06-10T00:51:31;7.87;;;6.20;;
23123;SDS011;11731;48.592;8.858;2023-06-10T00:54:00;7.70;;;6.40;;
23123;SDS011;11731;48.592;8.858;2023-06-10T00:56:28;6.43;;;5.83;;
23123;SDS011;11731;48.592;8.858;2023-06-10T00:58:55;6.43;;;5.80;;
23123;SDS011;11731;48.592;8.858;2023-06-10T01:01:22;8.47;;;6.00;;
23123;SDS011;11731;48.592;8.858;2023-06-10T01:03:49;6.93;;;6.30;;
23123;SDS011;11731;48.592;8.858;2023-06-10T01:06:18;8.57;;;6.40;;
23123;SDS011;11731;48.592;8.858;2023-06-10T01:08:55;7.40;;;6.53;;
23123;SDS011;11731;48.592;8.858;2023-06-10T01:11:36;7.40;;;6.70;;
23123;SDS011;11731;48.592;8.858;2023-06-10T01:14:07;7.23;;;6.53;;
23123;SDS011;11731;48.592;8.858;2023-06-10T01:16:35;8.53;;;6.60;;
23123;SDS011;11731;48.592;8.858;2023-06-10T01:19:05;7.20;;;6.50;;
23123;SDS011;11731;48.592;8.858;2023-06-10T01:21:34;7.47;;;6.77;;
23123;SDS011;11731;48.592;8.858;2023-06-10T01:24:01;7.93;;;6.80;;
23123;SDS011;11731;48.592;8.858;2023-06-10T01:26:29;8.90;;;6.80;;
23123;SDS011;11731;48.592;8.858;2023-06-10T01:28:58;9.57;;;6.57;;
23123;SDS011;11731;48.592;8.858;2023-06-10T01:31:36;6.63;;;5.93;;
23123;SDS011;11731;48.592;8.858;2023-06-10T01:34:09;7.27;;;6.57;;
23123;SDS011;11731;48.592;8.858;2023-06-10T01:36:40;7.10;;;6.40;;
23123;SDS011;11731;48.592;8.858;2023-06-10T01:39:07;7.17;;;6.47;;
23123;SDS011;11731;48.592;8.858;2023-06-10T01:41:35;7.43;;;6.50;;
23123;SDS011;11731;48.592;8.858;2023-06-10T01:44:03;6.80;;;6.20;;
23123;SDS011;11731;48.592;8.858;2023-06-10T01:46:30;7.47;;;6.60;;
23123;SDS011;11731;48.592;8.858;2023-06-10T01:48:57;7.67;;;6.97;;
23123;SDS011;11731;48.592;8.858;2023-06-10T01:51:24;7.23;;;6.53;;
23123;SDS011;11731;48.592;8.858;2023-06-10T01:53:52;8.93;;;7.30;;
23123;SDS011;11731;48.592;8.858;2023-06-10T01:56:19;7.77;;;6.63;;
23123;SDS011;11731;48.592;8.858;2023-06-10T01:58:46;7.43;;;6.73;;
23123;SDS011;11731;48.592;8.858;2023-06-10T02:01:13;8.30;;;7.33;;
23123;SDS011;11731;48.592;8.858;2023-06-10T02:03:40;8.03;;;6.97;;
23123;SDS011;11731;48.592;8.858;2023-06-10T02:06:07;8.10;;;7.30;;
23123;SDS011;11731;48.592;8.858;2023-06-10T02:08:34;8.30;;;7.50;;
23123;SDS011;11731;48.592;8.858;2023-06-10T02:11:02;8.77;;;7.03;;
23123;SDS011;11731;48.592;8.858;2023-06-10T02:13:29;7.47;;;6.77;;
23123;SDS011;11731;48.592;8.858;2023-06-10T02:16:17;9.47;;;6.90;;
23123;SDS011;11731;48.592;8.858;2023-06-10T02:18:46;7.10;;;6.37;;
23123;SDS011;11731;48.592;8.858;2023-06-10T02:21:13;10.37;;;6.77;;
23123;SDS011;11731;48.592;8.858;2023-06-10T02:23:43;7.57;;;6.67;;
23123;SDS011;11731;48.592;8.858;2023-06-10T02:26:11;7.57;;;6.57;;
23123;SDS011;11731;48.592;8.858;2023-06-10T02:29:04;7.97;;;7.00;;
23123;SDS011;11731;48.592;8.858;2023-06-10T02:31:31;8.57;;;7.77;;
23123;SDS011;11731;48.592;8.858;2023-06-10T02:34:00;7.77;;;6.97;;
23123;SDS011;11731;48.592;8.858;2023-06-10T02:36:28;8.17;;;6.73;;
23123;SDS011;11731;48.592;8.858;2023-06-10T02:39:00;9.53;;;7.43;;
23123;SDS011;11731;48.592;8.858;2023-06-10T02:41:29;7.43;;;6.73;;
23123;SDS011;11731;48.592;8.858;2023-06-10T02:43:56;7.70;;;6.70;;
23123;SDS011;11731;48.592;8.858;2023-06-10T02:46:23;9.07;;;6.83;;
23123;SDS011;11731;48.592;8.858;2023-06-10T02:48:50;7.77;;;7.03;;
23123;SDS011;11731;48.592;8.858;2023-06-10T02:51:17;8.20;;;7.33;;
23123;SDS011;11731;48.592;8.858;2023-06-10T02:53:44;8.37;;;7.30;;
23123;SDS011;11731;48.592;8.858;2023-06-10T02:56:11;8.00;;;7.20;;
23123;SDS011;11731;48.592;8.858;2023-06-10T02:58:41;8.30;;;6.53;;
23123;SDS011;11731;48.592;8.858;2023-06-10T03:01:08;10.10;;;7.30;;
23123;SDS011;11731;48.592;8.858;2023-06-10T03:03:35;7.37;;;6.67;;
23123;SDS011;11731;48.592;8.858;2023-06-10T03:06:05;9.53;;;7.23;;
23123;SDS011;11731;48.592;8.858;2023-06-10T03:08:33;10.30;;;7.10;;
23123;SDS011;11731;48.592;8.858;2023-06-10T03:11:00;8.47;;;7.00;;
23123;SDS011;11731;48.592;8.858;2023-06-10T03:13:27;8.37;;;7.40;;
23123;SDS011;11731;48.592;8.858;2023-06-10T03:15:55;8.80;;;7.97;;
23123;SDS011;11731;48.592;8.858;2023-06-10T03:18:26;7.30;;;6.60;;
23123;SDS011;11731;48.592;8.858;2023-06-10T03:20:53;9.17;;;7.53;;
23123;SDS011;11731;48.592;8.858;2023-06-10T03:23:21;7.30;;;6.60;;
23123;SDS011;11731;48.592;8.858;2023-06-10T03:25:48;8.30;;;6.83;;
23123;SDS011;11731;48.592;8.858;2023-06-10T03:28:15;9.13;;;6.83;;
23123;SDS011;11731;48.592;8.858;2023-06-10T03:30:41;7.47;;;6.77;;
23123;SDS011;11731;48.592;8.858;2023-06-10T03:33:10;10.73;;;7.67;;
23123;SDS011;11731;48.592;8.858;2023-06-10T03:35:37;7.30;;;6.60;;
23123;SDS011;11731;48.592;8.858;2023-06-10T03:38:03;11.13;;;7.27;;
23123;SDS011;11731;48.592;8.858;2023-06-10T03:40:31;9.07;;;7.13;;
23123;SDS011;11731;48.592;8.858;2023-06-10T03:42:58;10.30;;;7.10;;
23123;SDS011;11731;48.592;8.858;2023-06-10T03:45:25;7.97;;;7.17;;
23123;SDS011;11731;48.592;8.858;2023-06-10T03:47:53;9.37;;;7.10;;
23123;SDS011;11731;48.592;8.858;2023-06-10T03:50:22;7.93;;;7.23;;
23123;SDS011;11731;48.592;8.858;2023-06-10T03:52:49;9.87;;;6.83;;
23123;SDS011;11731;48.592;8.858;2023-06-10T03:55:46;8.13;;;7.33;;
23123;SDS011;11731;48.592;8.858;2023-06-10T03:58:43;8.63;;;6.90;;
23123;SDS011;11731;48.592;8.858;2023-06-10T04:01:06;8.27;;;7.47;;
23123;SDS011;11731;48.592;8.858;2023-06-10T04:03:33;7.27;;;6.37;;
23123;SDS011;11731;48.592;8.858;2023-06-10T04:06:02;7.60;;;6.83;;
23123;SDS011;11731;48.592;8.858;2023-06-10T04:08:29;7.17;;;6.47;;
23123;SDS011;11731;48.592;8.858;2023-06-10T04:10:56;8.80;;;7.17;;
23123;SDS011;11731;48.592;8.858;2023-06-10T04:13:26;7.37;;;6.63;;
23123;SDS011;11731;48.592;8.858;2023-06-10T04:16:21;8.13;;;7.00;;
23123;SDS011;11731;48.592;8.858;2023-06-10T04:18:48;7.57;;;6.87;;
23123;SDS011;11731;48.592;8.858;2023-06-10T04:21:16;6.13;;;5.60;;
23123;SDS011;11731;48.592;8.858;2023-06-10T04:23:46;8.30;;;6.30;;
23123;SDS011;11731;48.592;8.858;2023-06-10T04:26:13;7.93;;;6.50;;
23123;SDS011;11731;48.592;8.858;2023-06-10T04:28:43;6.90;;;6.20;;
23123;SDS011;11731;48.592;8.858;2023-06-10T04:31:10;8.97;;;6.93;;
23123;SDS011;11731;48.592;8.858;2023-06-10T04:33:46;9.00;;;6.30;;
23123;SDS011;11731;48.592;8.858;2023-06-10T04:36:13;6.40;;;5.80;;
23123;SDS011;11731;48.592;8.858;2023-06-10T04:38:45;8.13;;;7.27;;
23123;SDS011;11731;48.592;8.858;2023-06-10T04:41:11;7.80;;;6.37;;
23123;SDS011;11731;48.592;8.858;2023-06-10T04:43:38;7.07;;;5.87;;
23123;SDS011;11731;48.592;8.858;2023-06-10T04:46:05;7.27;;;6.47;;
23123;SDS011;11731;48.592;8.858;2023-06-10T04:48:32;7.10;;;6.47;;
23123;SDS011;11731;48.592;8.858;2023-06-10T04:51:00;7.67;;;6.60;;
23123;SDS011;11731;48.592;8.858;2023-06-10T04:53:27;8.50;;;6.30;;
23123;SDS011;11731;48.592;8.858;2023-06-10T04:55:58;8.20;;;5.93;;
23123;SDS011;11731;48.592;8.858;2023-06-10T04:58:25;6.83;;;6.23;;
23123;SDS011;11731;48.592;8.858;2023-06-10T05:00:52;6.23;;;5.63;;
23123;SDS011;11731;48.592;8.858;2023-06-10T05:03:19;8.23;;;6.07;;
23123;SDS011;11731;48.592;8.858;2023-06-10T05:05:46;6.43;;;5.80;;
23123;SDS011;11731;48.592;8.858;2023-06-10T05:08:14;6.33;;;5.37;;
23123;SDS011;11731;48.592;8.858;2023-06-10T05:10:44;6.90;;;5.63;;
23123;SDS011;11731;48.592;8.858;2023-06-10T05:13:12;6.00;;;5.40;;
23123;SDS011;11731;48.592;8.858;2023-06-10T05:15:39;5.60;;;5.10;;
23123;SDS011;11731;48.592;8.858;2023-06-10T05:18:09;5.87;;;5.30;;
23123;SDS011;11731;48.592;8.858;2023-06-10T05:20:37;6.80;;;6.10;;
23123;SDS011;11731;48.592;8.858;2023-06-10T05:23:04;6.10;;;5.23;;
23123;SDS011;11731;48.592;8.858;2023-06-10T05:25:32;5.73;;;5.23;;
23123;SDS011;11731;48.592;8.858;2023-06-10T05:27:59;7.83;;;6.10;;
23123;SDS011;11731;48.592;8.858;2023-06-10T05:30:27;5.83;;;5.30;;
23123;SDS011;11731;48.592;8.858;2023-06-10T05:32:54;5.70;;;5.20;;
23123;SDS011;11731;48.592;8.858;2023-06-10T05:35:21;6.57;;;5.87;;
23123;SDS011;11731;48.592;8.858;2023-06-10T05:37:48;6.40;;;5.80;;
23123;SDS011;11731;48.592;8.858;2023-06-10T05:40:15;7.53;;;6.10;;
23123;SDS011;11731;48.592;8.858;2023-06-10T05:42:42;6.20;;;5.60;;
23123;SDS011;11731;48.592;8.858;2023-06-10T05:45:09;6.57;;;5.97;;
23123;SDS011;11731;48.592;8.858;2023-06-10T05:47:38;6.13;;;5.53;;
23123;SDS011;11731;48.592;8.858;2023-06-10T05:50:05;8.33;;;6.20;;
23123;SDS011;11731;48.592;8.858;2023-06-10T05:52:37;7.77;;;6.07;;
23123;SDS011;11731;48.592;8.858;2023-06-10T05:55:05;7.33;;;6.37;;
23123;SDS011;11731;48.592;8.858;2023-06-10T05:57:33;6.80;;;6.10;;
23123;SDS011;11731;48.592;8.858;2023-06-10T06:00:00;8.90;;;5.63;;
23123;SDS011;11731;48.592;8.858;2023-06-10T06:02:34;5.80;;;5.30;;
23123;SDS011;11731;48.592;8.858;2023-06-10T06:05:05;7.17;;;5.73;;
23123;SDS011;11731;48.592;8.858;2023-06-10T06:07:32;8.57;;;5.87;;
23123;SDS011;11731;48.592;8.858;2023-06-10T06:09:59;6.60;;;6.00;;
23123;SDS011;11731;48.592;8.858;2023-06-10T06:12:26;6.40;;;5.80;;
23123;SDS011;11731;48.592;8.858;2023-06-10T06:14:53;6.20;;;5.47;;
23123;SDS011;11731;48.592;8.858;2023-06-10T06:17:20;6.27;;;5.37;;
23123;SDS011;11731;48.592;8.858;2023-06-10T06:19:58;6.47;;;5.67;;
23123;SDS011;11731;48.592;8.858;2023-06-10T06:22:40;6.20;;;5.60;;
23123;SDS011;11731;48.592;8.858;2023-06-10T06:25:07;5.80;;;5.23;;
23123;SDS011;11731;48.592;8.858;2023-06-10T06:27:34;6.30;;;5.80;;
23123;SDS011;11731;48.592;8.858;2023-06-10T06:30:03;6.40;;;5.80;;
23123;SDS011;11731;48.592;8.858;2023-06-10T06:32:30;6.30;;;5.77;;
23123;SDS011;11731;48.592;8.858;2023-06-10T06:34:57;6.10;;;5.60;;
23123;SDS011;11731;48.592;8.858;2023-06-10T06:37:25;7.67;;;5.93;;
23123;SDS011;11731;48.592;8.858;2023-06-10T06:39:54;6.30;;;5.70;;
23123;SDS011;11731;48.592;8.858;2023-06-10T06:42:22;6.13;;;5.53;;
23123;SDS011;11731;48.592;8.858;2023-06-10T06:44:49;6.90;;;5.50;;
23123;SDS011;11731;48.592;8.858;2023-06-10T06:47:16;6.10;;;5.23;;
23123;SDS011;11731;48.592;8.858;2023-06-10T06:49:44;6.10;;;5.50;;
23123;SDS011;11731;48.592;8.858;2023-06-10T06:52:11;6.93;;;5.90;;
23123;SDS011;11731;48.592;8.858;2023-06-10T06:54:38;5.53;;;5.03;;
23123;SDS011;11731;48.592;8.858;2023-06-10T06:57:07;7.00;;;5.50;;
23123;SDS011;11731;48.592;8.858;2023-06-10T06:59:34;6.30;;;5.70;;
23123;SDS011;11731;48.592;8.858;2023-06-10T07:02:00;6.47;;;5.87;;
23123;SDS011;11731;48.592;8.858;2023-06-10T07:04:27;6.80;;;5.73;;
23123;SDS011;11731;48.592;8.858;2023-06-10T07:06:55;5.83;;;5.33;;
23123;SDS011;11731;48.592;8.858;2023-06-10T07:09:22;5.70;;;5.20;;
23123;SDS011;11731;48.592;8.858;2023-06-10T07:11:49;7.27;;;5.67;;
23123;SDS011;11731;48.592;8.858;2023-06-10T07:14:17;7.10;;;6.13;;
23123;SDS011;11731;48.592;8.858;2023-06-10T07:16:44;6.00;;;5.40;;
23123;SDS011;11731;48.592;8.858;2023-06-10T07:19:13;7.03;;;5.80;;
23123;SDS011;11731;48.592;8.858;2023-06-10T07:21:42;6.43;;;5.83;;
23123;SDS011;11731;48.592;8.858;2023-06-10T07:24:09;5.60;;;5.10;;
23123;SDS011;11731;48.592;8.858;2023-06-10T07:26:46;5.97;;;5.47;;
23123;SDS011;11731;48.592;8.858;2023-06-10T07:29:13;5.97;;;5.37;;
23123;SDS011;11731;48.592;8.858;2023-06-10T07:31:41;6.50;;;5.40;;
23123;SDS011;11731;48.592;8.858;2023-06-10T07:34:29;6.43;;;5.83;;
23123;SDS011;11731;48.592;8.858;2023-06-10T07:36:56;6.13;;;5.60;;
23123;SDS011;11731;48.592;8.858;2023-06-10T07:39:23;6.30;;;5.70;;
23123;SDS011;11731;48.592;8.858;2023-06-10T07:41:50;6.20;;;5.70;;
23123;SDS011;11731;48.592;8.858;2023-06-10T07:44:18;6.20;;;5.60;;
23123;SDS011;11731;48.592;8.858;2023-06-10T07:46:47;7.57;;;5.67;;
23123;SDS011;11731;48.592;8.858;2023-06-10T07:49:14;5.13;;;4.63;;
23123;SDS011;11731;48.592;8.858;2023-06-10T07:51:41;6.73;;;5.67;;
23123;SDS011;11731;48.592;8.858;2023-06-10T07:54:07;5.87;;;5.13;;
23123;SDS011;11731;48.592;8.858;2023-06-10T07:56:34;6.93;;;4.93;;
23123;SDS011;11731;48.592;8.858;2023-06-10T07:59:01;5.63;;;5.13;;
23123;SDS011;11731;48.592;8.858;2023-06-10T08:01:28;5.37;;;4.87;;
23123;SDS011;11731;48.592;8.858;2023-06-10T08:03:57;6.37;;;4.70;;
23123;SDS011;11731;48.592;8.858;2023-06-10T08:06:24;5.43;;;4.93;;
23123;SDS011;11731;48.592;8.858;2023-06-10T08:09:25;4.73;;;4.33;;
23123;SDS011;11731;48.592;8.858;2023-06-10T08:11:52;5.00;;;4.50;;
23123;SDS011;11731;48.592;8.858;2023-06-10T08:14:18;4.57;;;4.17;;
23123;SDS011;11731;48.592;8.858;2023-06-10T08:16:45;6.33;;;4.23;;
23123;SDS011;11731;48.592;8.858;2023-06-10T08:19:14;6.70;;;4.87;;
23123;SDS011;11731;48.592;8.858;2023-06-10T08:21:40;4.63;;;4.23;;
23123;SDS011;11731;48.592;8.858;2023-06-10T08:24:13;6.47;;;4.67;;
23123;SDS011;11731;48.592;8.858;2023-06-10T08:26:45;5.13;;;4.63;;
23123;SDS011;11731;48.592;8.858;2023-06-10T08:29:18;5.33;;;4.83;;
23123;SDS011;11731;48.592;8.858;2023-06-10T08:31:57;5.37;;;4.63;;
23123;SDS011;11731;48.592;8.858;2023-06-10T08:34:25;4.77;;;4.37;;
23123;SDS011;11731;48.592;8.858;2023-06-10T08:36:52;5.93;;;4.00;;
23123;SDS011;11731;48.592;8.858;2023-06-10T08:39:20;6.70;;;4.10;;
23123;SDS011;11731;48.592;8.858;2023-06-10T08:41:49;4.97;;;4.27;;
23123;SDS011;11731;48.592;8.858;2023-06-10T08:44:29;4.30;;;3.90;;
23123;SDS011;11731;48.592;8.858;2023-06-10T08:46:58;5.00;;;4.17;;
23123;SDS011;11731;48.592;8.858;2023-06-10T08:49:29;4.70;;;4.27;;
23123;SDS011;11731;48.592;8.858;2023-06-10T08:51:59;5.17;;;4.63;;
23123;SDS011;11731;48.592;8.858;2023-06-10T08:54:30;4.77;;;4.30;;
23123;SDS011;11731;48.592;8.858;2023-06-10T08:57:02;5.23;;;4.50;;
23123;SDS011;11731;48.592;8.858;2023-06-10T08:59:38;4.70;;;4.30;;
23123;SDS011;11731;48.592;8.858;2023-06-10T09:02:05;4.13;;;3.73;;
23123;SDS011;11731;48.592;8.858;2023-06-10T09:04:36;4.80;;;4.00;;
23123;SDS011;11731;48.592;8.858;2023-06-10T09:07:03;4.40;;;3.93;;
23123;SDS011;11731;48.592;8.858;2023-06-10T09:09:31;6.27;;;4.27;;
23123;SDS011;11731;48.592;8.858;2023-06-10T09:12:00;5.00;;;4.50;;
23123;SDS011;11731;48.592;8.858;2023-06-10T09:14:27;4.87;;;4.00;;
23123;SDS011;11731;48.592;8.858;2023-06-10T09:16:53;4.63;;;3.80;;
23123;SDS011;11731;48.592;8.858;2023-06-10T09:19:25;4.03;;;3.73;;
23123;SDS011;11731;48.592;8.858;2023-06-10T09:21:54;4.37;;;3.93;;
23123;SDS011;11731;48.592;8.858;2023-06-10T09:24:21;4.37;;;3.93;;
23123;SDS011;11731;48.592;8.858;2023-06-10T09:26:49;5.47;;;3.73;;
23123;SDS011;11731;48.592;8.858;2023-06-10T09:29:16;5.37;;;4.30;;
23123;SDS011;11731;48.592;8.858;2023-06-10T09:31:43;7.27;;;4.63;;
23123;SDS011;11731;48.592;8.858;2023-06-10T09:34:11;4.67;;;4.27;;
23123;SDS011;11731;48.592;8.858;2023-06-10T09:36:39;4.10;;;3.80;;
23123;SDS011;11731;48.592;8.858;2023-06-10T09:39:14;4.83;;;4.10;;
23123;SDS011;11731;48.592;8.858;2023-06-10T09:41:42;5.00;;;4.20;;
23123;SDS011;11731;48.592;8.858;2023-06-10T09:44:14;4.67;;;4.00;;
23123;SDS011;11731;48.592;8.858;2023-06-10T09:46:43;5.03;;;4.53;;
23123;SDS011;11731;48.592;8.858;2023-06-10T09:49:29;4.70;;;4.23;;
23123;SDS011;11731;48.592;8.858;2023-06-10T09:51:56;5.30;;;4.37;;
23123;SDS011;11731;48.592;8.858;2023-06-10T09:54:24;4.87;;;3.93;;
23123;SDS011;11731;48.592;8.858;2023-06-10T09:57:12;4.20;;;3.80;;
23123;SDS011;11731;48.592;8.858;2023-06-10T09:59:39;4.67;;;4.27;;
23123;SDS011;11731;48.592;8.858;2023-06-10T10:02:07;4.50;;;4.10;;
23123;SDS011;11731;48.592;8.858;2023-06-10T10:04:40;4.83;;;4.40;;
23123;SDS011;11731;48.592;8.858;2023-06-10T10:07:07;4.37;;;3.97;;
23123;SDS011;11731;48.592;8.858;2023-06-10T10:09:36;4.50;;;4.10;;
23123;SDS011;11731;48.592;8.858;2023-06-10T10:12:04;4.03;;;3.63;;
23123;SDS011;11731;48.592;8.858;2023-06-10T10:14:35;4.20;;;3.80;;
23123;SDS011;11731;48.592;8.858;2023-06-10T10:17:03;4.00;;;3.70;;
23123;SDS011;11731;48.592;8.858;2023-06-10T10:19:34;5.17;;;4.13;;
23123;SDS011;11731;48.592;8.858;2023-06-10T10:22:10;4.37;;;3.97;;
23123;SDS011;11731;48.592;8.858;2023-06-10T10:24:47;5.10;;;4.40;;
23123;SDS011;11731;48.592;8.858;2023-06-10T10:27:18;4.57;;;3.90;;
23123;SDS011;11731;48.592;8.858;2023-06-10T10:29:48;4.13;;;3.77;;
23123;SDS011;11731;48.592;8.858;2023-06-10T10:32:18;4.03;;;3.73;;
23123;SDS011;11731;48.592;8.858;2023-06-10T10:34:56;4.10;;;3.80;;
23123;SDS011;11731;48.592;8.858;2023-06-10T10:37:33;4.37;;;3.83;;
23123;SDS011;11731;48.592;8.858;2023-06-10T10:40:03;3.60;;;3.30;;
23123;SDS011;11731;48.592;8.858;2023-06-10T10:42:31;4.00;;;3.60;;
23123;SDS011;11731;48.592;8.858;2023-06-10T10:44:59;5.57;;;4.07;;
23123;SDS011;11731;48.592;8.858;2023-06-10T10:47:28;4.43;;;4.03;;
23123;SDS011;11731;48.592;8.858;2023-06-10T10:50:28;4.20;;;3.80;;
23123;SDS011;11731;48.592;8.858;2023-06-10T10:52:58;3.83;;;3.53;;
23123;SDS011;11731;48.592;8.858;2023-06-10T10:55:27;3.60;;;3.30;;
23123;SDS011;11731;48.592;8.858;2023-06-10T10:57:55;4.40;;;3.10;;
23123;SDS011;11731;48.592;8.858;2023-06-10T11:00:27;5.03;;;3.57;;
23123;SDS011;11731;48.592;8.858;2023-06-10T11:02:57;4.97;;;3.37;;
23123;SDS011;11731;48.592;8.858;2023-06-10T11:05:31;3.93;;;3.50;;
23123;SDS011;11731;48.592;8.858;2023-06-10T11:08:04;3.70;;;3.40;;
23123;SDS011;11731;48.592;8.858;2023-06-10T11:10:33;4.60;;;3.60;;
23123;SDS011;11731;48.592;8.858;2023-06-10T11:13:05;4.13;;;3.23;;
23123;SDS011;11731;48.592;8.858;2023-06-10T11:15:33;3.97;;;3.57;;
23123;SDS011;11731;48.592;8.858;2023-06-10T11:18:09;4.30;;;3.90;;
23123;SDS011;11731;48.592;8.858;2023-06-10T11:23:57;4.63;;;3.80;;
23123;SDS011;11731;48.592;8.858;2023-06-10T11:26:32;4.37;;;3.97;;
23123;SDS011;11731;48.592;8.858;2023-06-10T11:29:09;4.33;;;3.93;;
23123;SDS011;11731;48.592;8.858;2023-06-10T11:31:38;4.40;;;4.00;;
23123;SDS011;11731;48.592;8.858;2023-06-10T11:34:09;4.73;;;4.33;;
23123;SDS011;11731;48.592;8.858;2023-06-10T11:36:37;4.60;;;4.20;;
23123;SDS011;11731;48.592;8.858;2023-06-10T11:39:07;3.97;;;3.60;;
23123;SDS011;11731;48.592;8.858;2023-06-10T11:41:35;4.20;;;3.83;;
23123;SDS011;11731;48.592;8.858;2023-06-10T11:44:16;5.47;;;4.57;;
23123;SDS011;11731;48.592;8.858;2023-06-10T11:46:43;4.60;;;4.00;;
23123;SDS011;11731;48.592;8.858;2023-06-10T11:49:11;5.37;;;4.00;;
23123;SDS011;11731;48.592;8.858;2023-06-10T11:51:38;4.40;;;4.00;;
23123;SDS011;11731;48.592;8.858;2023-06-10T11:54:10;4.47;;;3.77;;
23123;SDS011;11731;48.592;8.858;2023-06-10T11:56:37;4.03;;;3.73;;
23123;SDS011;11731;48.592;8.858;2023-06-10T11:59:04;4.70;;;4.30;;
23123;SDS011;11731;48.592;8.858;2023-06-10T12:01:34;4.13;;;3.83;;
23123;SDS011;11731;48.592;8.858;2023-06-10T12:04:03;4.27;;;3.90;;
23123;SDS011;11731;48.592;8.858;2023-06-10T12:06:37;3.87;;;3.57;;
23123;SDS011;11731;48.592;8.858;2023-06-10T12:09:15;4.00;;;3.60;;
23123;SDS011;11731;48.592;8.858;2023-06-10T12:11:43;4.17;;;3.87;;
23123;SDS011;11731;48.592;8.858;2023-06-10T12:14:10;5.67;;;3.70;;
23123;SDS011;11731;48.592;8.858;2023-06-10T12:16:38;4.00;;;3.70;;
23123;SDS011;11731;48.592;8.858;2023-06-10T12:19:05;4.33;;;3.93;;
23123;SDS011;11731;48.592;8.858;2023-06-10T12:21:33;5.13;;;4.27;;
23123;SDS011;11731;48.592;8.858;2023-06-10T12:24:07;5.33;;;3.67;;
23123;SDS011;11731;48.592;8.858;2023-06-10T12:26:38;4.43;;;4.00;;
23123;SDS011;11731;48.592;8.858;2023-06-10T12:29:19;4.20;;;3.80;;
23123;SDS011;11731;48.592;8.858;2023-06-10T12:31:54;3.97;;;3.67;;
23123;SDS011;11731;48.592;8.858;2023-06-10T12:34:40;4.13;;;3.50;;
23123;SDS011;11731;48.592;8.858;2023-06-10T12:37:09;3.73;;;3.43;;
23123;SDS011;11731;48.592;8.858;2023-06-10T12:39:41;3.80;;;3.50;;
23123;SDS011;11731;48.592;8.858;2023-06-10T12:42:14;4.97;;;4.00;;
23123;SDS011;11731;48.592;8.858;2023-06-10T12:44:41;4.03;;;3.67;;
23123;SDS011;11731;48.592;8.858;2023-06-10T12:47:09;3.57;;;3.27;;
23123;SDS011;11731;48.592;8.858;2023-06-10T12:49:38;3.77;;;3.47;;
23123;SDS011;11731;48.592;8.858;2023-06-10T12:52:11;3.53;;;3.23;;
23123;SDS011;11731;48.592;8.858;2023-06-10T12:54:38;3.73;;;3.40;;
23123;SDS011;11731;48.592;8.858;2023-06-10T12:57:05;3.97;;;3.20;;
23123;SDS011;11731;48.592;8.858;2023-06-10T12:59:32;3.13;;;2.93;;
23123;SDS011;11731;48.592;8.858;2023-06-10T13:01:58;4.40;;;3.37;;
23123;SDS011;11731;48.592;8.858;2023-06-10T13:04:27;4.27;;;3.60;;
23123;SDS011;11731;48.592;8.858;2023-06-10T13:10:02;3.63;;;3.33;;
23123;SDS011;11731;48.592;8.858;2023-06-10T13:12:29;3.83;;;3.53;;
23123;SDS011;11731;48.592;8.858;2023-06-10T13:14:55;5.00;;;3.90;;
23123;SDS011;11731;48.592;8.858;2023-06-10T13:17:22;3.93;;;3.40;;
23123;SDS011;11731;48.592;8.858;2023-06-10T13:19:51;3.20;;;2.90;;
23123;SDS011;11731;48.592;8.858;2023-06-10T13:22:18;3.70;;;3.40;;
23123;SDS011;11731;48.592;8.858;2023-06-10T13:24:45;3.83;;;3.53;;
23123;SDS011;11731;48.592;8.858;2023-06-10T13:27:12;4.03;;;3.73;;
23123;SDS011;11731;48.592;8.858;2023-06-10T13:29:48;4.30;;;3.57;;
23123;SDS011;11731;48.592;8.858;2023-06-10T13:32:23;4.47;;;4.10;;
23123;SDS011;11731;48.592;8.858;2023-06-10T13:34:52;4.20;;;3.80;;
23123;SDS011;11731;48.592;8.858;2023-06-10T13:37:19;4.03;;;3.70;;
23123;SDS011;11731;48.592;8.858;2023-06-10T13:39:46;5.60;;;3.83;;
23123;SDS011;11731;48.592;8.858;2023-06-10T13:42:17;3.80;;;3.50;;
23123;SDS011;11731;48.592;8.858;2023-06-10T13:45:00;4.67;;;3.60;;
23123;SDS011;11731;48.592;8.858;2023-06-10T13:47:26;4.73;;;3.90;;
23123;SDS011;11731;48.592;8.858;2023-06-10T13:49:54;7.70;;;3.93;;
23123;SDS011;11731;48.592;8.858;2023-06-10T13:52:21;4.10;;;3.70;;
23123;SDS011;11731;48.592;8.858;2023-06-10T13:54:48;4.43;;;4.03;;
23123;SDS011;11731;48.592;8.858;2023-06-10T13:58:18;4.10;;;3.80;;
23123;SDS011;11731;48.592;8.858;2023-06-10T14:00:31;4.20;;;3.80;;
23123;SDS011;11731;48.592;8.858;2023-06-10T14:02:58;4.57;;;4.17;;
23123;SDS011;11731;48.592;8.858;2023-06-10T14:05:26;4.40;;;3.83;;
23123;SDS011;11731;48.592;8.858;2023-06-10T14:07:53;4.70;;;4.30;;
23123;SDS011;11731;48.592;8.858;2023-06-10T14:10:23;4.20;;;3.80;;
23123;SDS011;11731;48.592;8.858;2023-06-10T14:13:20;4.00;;;3.70;;
23123;SDS011;11731;48.592;8.858;2023-06-10T14:16:50;4.57;;;4.17;;
23123;SDS011;11731;48.592;8.858;2023-06-10T14:18:57;4.20;;;3.90;;
23123;SDS011;11731;48.592;8.858;2023-06-10T14:21:25;5.87;;;4.07;;
23123;SDS011;11731;48.592;8.858;2023-06-10T14:23:52;5.13;;;3.83;;
23123;SDS011;11731;48.592;8.858;2023-06-10T14:26:19;4.10;;;3.70;;
23123;SDS011;11731;48.592;8.858;2023-06-10T14:28:46;4.10;;;3.67;;
23123;SDS011;11731;48.592;8.858;2023-06-10T14:31:28;3.93;;;3.63;;
23123;SDS011;11731;48.592;8.858;2023-06-10T14:33:55;5.53;;;4.27;;
23123;SDS011;11731;48.592;8.858;2023-06-10T14:36:22;3.93;;;3.63;;
23123;SDS011;11731;48.592;8.858;2023-06-10T14:38:53;4.03;;;3.73;;
23123;SDS011;11731;48.592;8.858;2023-06-10T14:41:20;3.93;;;3.37;;
23123;SDS011;11731;48.592;8.858;2023-06-10T14:46:26;4.40;;;4.00;;
23123;SDS011;11731;48.592;8.858;2023-06-10T14:46:56;4.67;;;4.27;;
23123;SDS011;11731;48.592;8.858;2023-06-10T14:49:23;4.27;;;3.87;;
23123;SDS011;11731;48.592;8.858;2023-06-10T14:51:50;3.60;;;3.20;;
23123;SDS011;11731;48.592;8.858;2023-06-10T14:54:18;4.30;;;3.90;;
23123;SDS011;11731;48.592;8.858;2023-06-10T14:56:45;4.50;;;4.10;;
23123;SDS011;11731;48.592;8.858;2023-06-10T14:59:12;4.00;;;3.70;;
23123;SDS011;11731;48.592;8.858;2023-06-10T15:01:41;4.50;;;4.00;;
23123;SDS011;11731;48.592;8.858;2023-06-10T15:04:13;4.57;;;3.50;;
23123;SDS011;11731;48.592;8.858;2023-06-10T15:06:40;4.00;;;3.70;;
23123;SDS011;11731;48.592;8.858;2023-06-10T15:09:08;4.27;;;3.83;;
23123;SDS011;11731;48.592;8.858;2023-06-10T15:11:36;4.80;;;4.40;;